createdAt,value
2023-05-24T00:01:49.341Z,2.10
2023-05-24T00:04:20.288Z,2.20
2023-05-24T00:06:49.539Z,2.03
2023-05-24T00:09:19.032Z,2.03
2023-05-24T00:11:48.404Z,1.97
2023-05-24T00:14:15.445Z,2.23
2023-05-24T00:16:46.754Z,2.00
2023-05-24T00:19:18.661Z,2.57
2023-05-24T00:21:46.916Z,1.83
2023-05-24T00:24:17.604Z,2.37
2023-05-24T00:26:48.691Z,2.20
2023-05-24T00:29:17.927Z,2.03
2023-05-24T00:31:44.856Z,1.60
2023-05-24T00:34:11.937Z,1.97
2023-05-24T00:36:43.589Z,2.27
2023-05-24T00:39:10.677Z,1.70
2023-05-24T00:41:39.788Z,1.80
2023-05-24T00:44:11.809Z,2.10
2023-05-24T00:46:39.663Z,2.47
2023-05-24T00:49:11.904Z,2.10
2023-05-24T00:51:41.228Z,2.37
2023-05-24T00:54:08.262Z,2.10
2023-05-24T00:56:35.809Z,2.20
2023-05-24T00:59:03.247Z,2.03
2023-05-24T01:01:34.564Z,2.30
2023-05-24T01:04:02.117Z,1.97
2023-05-24T01:06:33.322Z,2.13
2023-05-24T01:09:03.296Z,2.67
2023-05-24T01:11:51.036Z,2.00
2023-05-24T01:14:26.933Z,2.20
2023-05-24T01:17:04.930Z,2.53
2023-05-24T01:19:51.410Z,2.40
2023-05-24T01:22:47.194Z,2.00
2023-05-24T01:25:39.189Z,2.17
2023-05-24T01:28:10.623Z,2.67
2023-05-24T01:30:41.990Z,2.97
2023-05-24T01:33:09.254Z,2.80
2023-05-24T01:35:40.659Z,2.83
2023-05-24T01:38:12.325Z,2.27
2023-05-24T01:40:40.767Z,2.77
2023-05-24T01:43:36.066Z,2.97
2023-05-24T01:46:21.250Z,2.70
2023-05-24T01:49:20.766Z,2.80
2023-05-24T01:52:02.295Z,2.90
2023-05-24T01:54:33.494Z,3.50
2023-05-24T01:57:05.639Z,2.80
2023-05-24T01:59:33.761Z,3.03
2023-05-24T02:02:01.818Z,2.97
2023-05-24T02:04:29.020Z,3.40
2023-05-24T02:06:55.834Z,2.40
2023-05-24T02:09:24.936Z,3.03
2023-05-24T02:11:51.928Z,2.93
2023-05-24T02:14:20.101Z,3.00
2023-05-24T02:16:51.062Z,3.77
2023-05-24T02:19:19.163Z,2.97
2023-05-24T02:21:48.415Z,3.40
2023-05-24T02:24:20.150Z,2.70
2023-05-24T02:26:47.123Z,3.33
2023-05-24T02:29:16.761Z,2.73
2023-05-24T02:31:43.668Z,3.27
2023-05-24T02:34:10.711Z,3.83
2023-05-24T02:36:37.688Z,2.40
2023-05-24T02:39:06.887Z,3.03
2023-05-24T02:41:33.829Z,3.27
2023-05-24T02:44:00.846Z,3.30
2023-05-24T02:46:27.836Z,3.40
2023-05-24T02:48:57.141Z,3.47
2023-05-24T02:51:26.818Z,2.90
2023-05-24T02:53:53.651Z,2.80
2023-05-24T02:56:22.254Z,3.50
2023-05-24T02:58:49.161Z,2.77
2023-05-24T03:01:16.277Z,3.20
2023-05-24T03:03:45.796Z,2.60
2023-05-24T03:06:15.586Z,3.67
2023-05-24T03:08:42.560Z,4.17
2023-05-24T03:11:09.497Z,3.20
2023-05-24T03:13:38.660Z,3.43
2023-05-24T03:16:08.701Z,3.37
2023-05-24T03:18:36.266Z,3.53
2023-05-24T03:21:03.201Z,3.23
2023-05-24T03:23:38.662Z,4.00
2023-05-24T03:26:07.604Z,3.27
2023-05-24T03:28:40.893Z,4.07
2023-05-24T03:31:08.627Z,2.83
2023-05-24T03:33:36.646Z,2.67
2023-05-24T03:36:04.461Z,3.70
2023-05-24T03:38:34.440Z,3.20
2023-05-24T03:41:03.986Z,3.17
2023-05-24T03:43:33.965Z,3.37
2023-05-24T03:46:03.549Z,3.67
2023-05-24T03:48:33.008Z,4.00
2023-05-24T03:51:04.629Z,4.10
2023-05-24T03:53:35.717Z,3.60
2023-05-24T03:56:02.853Z,4.00
2023-05-24T03:58:29.814Z,3.40
2023-05-24T04:00:56.833Z,3.97
2023-05-24T04:03:26.404Z,3.90
2023-05-24T04:05:55.219Z,3.93
2023-05-24T04:08:24.316Z,3.80
2023-05-24T04:10:51.194Z,3.07
2023-05-24T04:13:20.619Z,3.30
2023-05-24T04:15:52.268Z,4.33
2023-05-24T04:18:21.972Z,4.80
2023-05-24T04:20:51.242Z,3.80
2023-05-24T04:23:20.094Z,4.03
2023-05-24T04:25:47.344Z,3.60
2023-05-24T04:28:15.476Z,4.47
2023-05-24T04:30:42.595Z,3.93
2023-05-24T04:33:09.578Z,3.53
2023-05-24T04:35:36.533Z,3.80
2023-05-24T04:38:04.353Z,3.63
2023-05-24T04:40:35.653Z,4.47
2023-05-24T04:43:02.985Z,4.87
2023-05-24T04:45:33.409Z,3.60
2023-05-24T04:48:05.295Z,3.30
2023-05-24T04:50:35.534Z,3.60
2023-05-24T04:53:05.272Z,3.60
2023-05-24T04:55:32.865Z,3.47
2023-05-24T04:58:01.896Z,3.57
2023-05-24T05:00:28.795Z,4.40
2023-05-24T05:02:55.698Z,4.30
2023-05-24T05:05:25.006Z,4.73
2023-05-24T05:07:51.911Z,4.07
2023-05-24T05:10:23.607Z,3.53
2023-05-24T05:12:51.182Z,3.27
2023-05-24T05:15:18.122Z,3.87
2023-05-24T05:17:47.480Z,3.90
2023-05-24T05:20:17.037Z,3.27
2023-05-24T05:22:49.872Z,4.10
2023-05-24T05:25:19.303Z,4.53
2023-05-24T05:27:46.268Z,3.77
2023-05-24T05:30:13.494Z,4.10
2023-05-24T05:32:40.590Z,5.00
2023-05-24T05:35:08.224Z,5.37
2023-05-24T05:37:37.325Z,5.73
2023-05-24T05:40:07.354Z,5.00
2023-05-24T05:42:34.197Z,4.53
2023-05-24T05:45:01.275Z,5.43
2023-05-24T05:47:32.514Z,6.17
2023-05-24T05:49:59.390Z,6.17
2023-05-24T05:52:31.181Z,7.07
2023-05-24T05:54:59.413Z,7.20
2023-05-24T05:57:33.707Z,5.83
2023-05-24T06:00:03.606Z,5.50
2023-05-24T06:02:41.418Z,6.30
2023-05-24T06:05:09.120Z,6.20
2023-05-24T06:07:39.028Z,5.73
2023-05-24T06:10:08.716Z,5.90
2023-05-24T06:12:38.287Z,5.63
2023-05-24T06:15:06.899Z,6.47
2023-05-24T06:17:37.227Z,5.70
2023-05-24T06:20:12.275Z,5.37
2023-05-24T06:22:45.215Z,6.87
2023-05-24T06:25:15.112Z,6.07
2023-05-24T06:27:44.239Z,5.00
2023-05-24T06:30:11.678Z,4.40
2023-05-24T06:32:40.992Z,4.10
2023-05-24T06:35:13.096Z,5.10
2023-05-24T06:37:40.217Z,4.17
2023-05-24T06:40:10.452Z,6.80
2023-05-24T06:42:40.167Z,4.73
2023-05-24T06:45:11.982Z,5.63
2023-05-24T06:47:41.244Z,4.40
2023-05-24T06:50:12.931Z,4.07
2023-05-24T06:52:42.283Z,4.27
2023-05-24T06:55:16.959Z,5.17
2023-05-24T06:57:43.888Z,5.17
2023-05-24T07:00:18.231Z,4.93
2023-05-24T07:02:47.315Z,4.50
2023-05-24T07:05:16.530Z,4.50
2023-05-24T07:07:46.262Z,4.80
2023-05-24T07:10:20.453Z,4.77
2023-05-24T07:12:47.335Z,4.63
2023-05-24T07:15:21.537Z,4.17
2023-05-24T07:17:54.480Z,4.03
2023-05-24T07:20:26.250Z,4.90
2023-05-24T07:22:55.285Z,3.70
2023-05-24T07:25:29.204Z,3.80
2023-05-24T07:27:56.159Z,3.77
2023-05-24T07:33:05.230Z,3.70
2023-05-24T07:35:38.786Z,4.10
2023-05-24T07:38:07.965Z,4.20
2023-05-24T07:40:39.674Z,5.40
2023-05-24T07:43:11.268Z,4.43
2023-05-24T07:45:45.705Z,4.87
2023-05-24T07:48:14.953Z,5.67
2023-05-24T07:50:48.992Z,4.10
2023-05-24T07:53:16.257Z,5.67
2023-05-24T07:55:45.481Z,4.60
2023-05-24T07:58:14.827Z,4.90
2023-05-24T08:00:43.872Z,4.27
2023-05-24T08:03:20.360Z,5.83
2023-05-24T08:05:50.468Z,4.60
2023-05-24T08:08:20.575Z,3.70
2023-05-24T08:10:51.975Z,4.93
2023-05-24T08:13:21.355Z,4.93
2023-05-24T08:15:50.836Z,4.83
2023-05-24T08:18:17.682Z,5.50
2023-05-24T08:20:46.973Z,4.90
2023-05-24T08:23:19.279Z,4.57
2023-05-24T08:25:48.962Z,4.57
2023-05-24T08:28:17.150Z,4.80
2023-05-24T08:30:48.816Z,4.67
2023-05-24T08:33:26.362Z,3.97
2023-05-24T08:35:55.373Z,4.67
2023-05-24T08:38:24.594Z,4.30
2023-05-24T08:40:56.806Z,5.13
2023-05-24T08:43:27.364Z,4.97
2023-05-24T08:45:59.320Z,4.37
2023-05-24T08:48:31.547Z,4.50
2023-05-24T08:50:58.912Z,4.30
2023-05-24T08:53:28.130Z,4.77
2023-05-24T08:55:59.956Z,3.67
2023-05-24T08:58:35.181Z,4.10
2023-05-24T09:01:09.613Z,4.63
2023-05-24T09:03:41.045Z,4.00
2023-05-24T09:06:17.931Z,4.50
2023-05-24T09:08:47.847Z,5.57
2023-05-24T09:11:19.819Z,5.27
2023-05-24T09:13:48.226Z,5.80
2023-05-24T09:16:17.710Z,5.60
2023-05-24T09:18:47.191Z,6.53
2023-05-24T09:21:23.318Z,5.37
2023-05-24T09:23:50.687Z,4.37
2023-05-24T09:26:19.871Z,6.43
2023-05-24T09:28:50.910Z,5.00
2023-05-24T09:31:32.050Z,5.93
2023-05-24T09:33:58.897Z,4.83
2023-05-24T09:36:26.344Z,4.80
2023-05-24T09:39:10.145Z,5.50
2023-05-24T09:41:39.784Z,5.60
2023-05-24T09:44:08.914Z,5.40
2023-05-24T09:46:40.724Z,4.10
2023-05-24T09:49:10.125Z,5.40
2023-05-24T09:51:39.209Z,4.97
2023-05-24T09:54:11.449Z,5.70
2023-05-24T09:56:44.501Z,5.93
2023-05-24T09:59:15.199Z,5.20
2023-05-24T10:01:47.458Z,5.17
2023-05-24T10:04:17.037Z,4.70
2023-05-24T10:06:48.249Z,6.80
2023-05-24T10:09:15.425Z,6.03
2023-05-24T10:11:42.671Z,4.60
2023-05-24T10:14:10.047Z,3.97
2023-05-24T10:16:41.506Z,3.60
2023-05-24T10:19:08.538Z,4.30
2023-05-24T10:21:43.412Z,4.97
2023-05-24T10:24:14.213Z,4.27
2023-05-24T10:26:44.517Z,5.20
2023-05-24T10:29:26.849Z,5.07
2023-05-24T10:31:57.656Z,5.43
2023-05-24T10:34:24.676Z,4.27
2023-05-24T10:36:54.847Z,4.63
2023-05-24T10:39:23.161Z,4.93
2023-05-24T10:41:58.706Z,4.43
2023-05-24T10:44:33.677Z,5.03
2023-05-24T10:47:13.431Z,4.03
2023-05-24T10:49:52.037Z,5.13
2023-05-24T10:52:23.695Z,5.33
2023-05-24T10:55:05.727Z,4.83
2023-05-24T10:57:38.588Z,5.00
2023-05-24T11:00:33.722Z,3.70
2023-05-24T11:03:09.666Z,5.10
2023-05-24T11:05:50.291Z,5.57
2023-05-24T11:08:30.433Z,6.30
2023-05-24T11:11:31.365Z,5.20
2023-05-24T11:14:09.611Z,5.10
2023-05-24T11:16:46.027Z,5.60
2023-05-24T11:19:31.376Z,5.90
2023-05-24T11:22:04.413Z,5.63
2023-05-24T11:24:39.364Z,4.97
2023-05-24T11:27:14.366Z,5.30
2023-05-24T11:29:47.078Z,5.30
2023-05-24T11:32:21.445Z,5.87
2023-05-24T11:34:48.888Z,5.50
2023-05-24T11:37:18.337Z,6.07
2023-05-24T11:39:55.972Z,5.40
2023-05-24T11:42:23.926Z,5.57
2023-05-24T11:44:54.034Z,5.50
2023-05-24T11:47:23.694Z,5.70
2023-05-24T11:49:51.857Z,5.63
2023-05-24T11:52:18.780Z,5.70
2023-05-24T11:54:45.608Z,5.60
2023-05-24T11:57:14.806Z,5.57
2023-05-24T11:59:48.713Z,5.10
2023-05-24T12:02:23.655Z,4.03
2023-05-24T12:04:53.114Z,4.33
2023-05-24T12:07:24.512Z,5.50
2023-05-24T12:09:53.619Z,4.70
2023-05-24T12:12:30.609Z,4.13
2023-05-24T12:15:01.207Z,5.67
2023-05-24T12:17:32.618Z,5.47
2023-05-24T12:20:06.600Z,3.90
2023-05-24T12:22:35.984Z,4.63
2023-05-24T12:25:03.756Z,4.67
2023-05-24T12:27:36.574Z,4.50
2023-05-24T12:30:18.904Z,3.80
2023-05-24T12:32:49.541Z,5.20
2023-05-24T12:35:22.046Z,4.13
2023-05-24T12:37:49.588Z,4.90
2023-05-24T12:40:17.562Z,4.70
2023-05-24T12:42:49.605Z,4.47
2023-05-24T12:45:25.947Z,4.10
2023-05-24T12:47:58.561Z,5.07
2023-05-24T12:50:27.823Z,4.23
2023-05-24T12:53:01.394Z,4.53
2023-05-24T12:55:34.013Z,4.87
2023-05-24T12:58:09.715Z,4.30
2023-05-24T13:00:39.670Z,4.80
2023-05-24T13:03:11.449Z,5.13
2023-05-24T13:05:46.263Z,4.90
2023-05-24T13:08:20.684Z,4.93
2023-05-24T13:10:50.952Z,4.33
2023-05-24T13:13:20.309Z,4.53
2023-05-24T13:15:47.645Z,5.10
2023-05-24T13:18:17.558Z,4.70
2023-05-24T13:20:47.097Z,4.40
2023-05-24T13:23:21.248Z,5.07
2023-05-24T13:25:48.102Z,4.13
2023-05-24T13:28:20.599Z,5.20
2023-05-24T13:30:47.829Z,4.00
2023-05-24T13:33:19.641Z,5.07
2023-05-24T13:35:46.518Z,3.80
2023-05-24T13:38:18.134Z,3.77
2023-05-24T13:40:48.588Z,3.67
2023-05-24T13:43:18.266Z,4.73
2023-05-24T13:45:48.157Z,3.80
2023-05-24T13:48:17.422Z,4.00
2023-05-24T13:50:51.420Z,3.57
2023-05-24T13:53:18.753Z,3.80
2023-05-24T13:55:45.619Z,4.60
2023-05-24T13:58:15.835Z,5.10
2023-05-24T14:00:45.560Z,3.83
2023-05-24T14:03:13.260Z,4.73
2023-05-24T14:05:45.100Z,4.10
2023-05-24T14:08:16.815Z,4.80
2023-05-24T14:10:47.210Z,4.30
2023-05-24T14:13:39.557Z,4.23
2023-05-24T14:16:03.286Z,3.70
2023-05-24T14:18:30.283Z,4.40
2023-05-24T14:21:01.696Z,4.70
2023-05-24T14:23:32.109Z,4.03
2023-05-24T14:26:02.071Z,4.27
2023-05-24T14:28:31.470Z,3.97
2023-05-24T14:30:58.325Z,4.37
2023-05-24T14:33:25.272Z,4.53
2023-05-24T14:35:54.768Z,4.03
2023-05-24T14:38:26.473Z,4.47
2023-05-24T14:40:59.863Z,4.17
2023-05-24T14:43:29.318Z,4.60
2023-05-24T14:45:56.696Z,4.30
2023-05-24T14:48:25.693Z,4.00
2023-05-24T14:50:57.821Z,3.17
2023-05-24T14:53:32.157Z,4.13
2023-05-24T14:56:05.198Z,3.77
2023-05-24T14:58:34.421Z,4.80
2023-05-24T15:01:08.777Z,4.80
2023-05-24T15:03:40.815Z,4.20
2023-05-24T15:06:10.170Z,3.80
2023-05-24T15:08:41.850Z,3.70
2023-05-24T15:11:11.474Z,3.27
2023-05-24T15:13:38.755Z,4.23
2023-05-24T15:16:05.815Z,3.40
2023-05-24T15:18:34.917Z,2.80
2023-05-24T15:21:04.289Z,3.73
2023-05-24T15:23:36.672Z,4.23
2023-05-24T15:26:08.426Z,3.80
2023-05-24T15:28:37.824Z,3.90
2023-05-24T15:31:09.335Z,4.27
2023-05-24T15:33:38.633Z,3.80
2023-05-24T15:36:08.150Z,4.20
2023-05-24T15:38:38.986Z,3.67
2023-05-24T15:41:08.180Z,4.17
2023-05-24T15:43:37.541Z,3.60
2023-05-24T15:46:09.298Z,4.10
2023-05-24T15:48:36.172Z,3.80
2023-05-24T15:53:40.391Z,4.50
2023-05-24T15:56:12.062Z,4.83
2023-05-24T15:58:44.234Z,3.50
2023-05-24T16:01:13.381Z,3.80
2023-05-24T16:03:44.699Z,3.70
2023-05-24T16:06:16.517Z,4.13
2023-05-24T16:08:46.074Z,3.90
2023-05-24T16:11:13.610Z,4.17
2023-05-24T16:13:40.614Z,4.27
2023-05-24T16:16:09.969Z,3.97
2023-05-24T16:18:41.767Z,3.93
2023-05-24T16:21:11.534Z,4.80
2023-05-24T16:23:43.464Z,5.27
2023-05-24T16:26:15.484Z,3.40
2023-05-24T16:28:49.356Z,4.00
2023-05-24T16:31:23.190Z,4.23
2023-05-24T16:33:50.083Z,4.20
2023-05-24T16:36:23.980Z,4.90
2023-05-24T16:38:55.601Z,4.40
2023-05-24T16:41:22.419Z,4.37
2023-05-24T16:43:51.599Z,6.20
2023-05-24T16:46:23.971Z,4.63
2023-05-24T16:48:50.976Z,3.90
2023-05-24T16:51:22.468Z,4.40
2023-05-24T16:53:54.131Z,4.10
2023-05-24T16:56:24.015Z,3.90
2023-05-24T16:58:53.295Z,3.73
2023-05-24T17:01:24.884Z,4.20
2023-05-24T17:03:54.314Z,4.00
2023-05-24T17:06:25.942Z,4.20
2023-05-24T17:08:52.779Z,4.30
2023-05-24T17:11:20.127Z,4.53
2023-05-24T17:13:50.762Z,4.60
2023-05-24T17:16:28.770Z,4.20
2023-05-24T17:18:58.666Z,3.90
2023-05-24T17:21:30.958Z,3.30
2023-05-24T17:24:02.565Z,4.90
2023-05-24T17:26:29.399Z,3.67
2023-05-24T17:28:56.618Z,3.93
2023-05-24T17:31:25.894Z,4.03
2023-05-24T17:33:55.174Z,3.87
2023-05-24T17:36:33.685Z,3.40
2023-05-24T17:39:04.900Z,3.37
2023-05-24T17:41:34.044Z,4.03
2023-05-24T17:44:05.986Z,3.10
2023-05-24T17:46:36.815Z,3.60
2023-05-24T17:49:07.193Z,3.60
2023-05-24T17:51:39.248Z,3.10
2023-05-24T17:54:06.526Z,3.30
2023-05-24T17:56:38.067Z,4.30
2023-05-24T17:59:11.345Z,3.77
2023-05-24T18:01:44.186Z,3.47
2023-05-24T18:04:16.096Z,3.33
2023-05-24T18:06:42.989Z,3.53
2023-05-24T18:09:10.551Z,5.10
2023-05-24T18:11:39.820Z,4.13
2023-05-24T18:14:08.863Z,3.60
2023-05-24T18:16:40.655Z,3.33
2023-05-24T18:19:07.713Z,2.80
2023-05-24T18:21:39.052Z,2.93
2023-05-24T18:24:06.078Z,3.50
2023-05-24T18:26:40.595Z,2.80
2023-05-24T18:29:12.782Z,3.33
2023-05-24T18:31:44.418Z,3.30
2023-05-24T18:34:15.937Z,3.60
2023-05-24T18:36:47.722Z,3.33
2023-05-24T18:39:14.695Z,3.00
2023-05-24T18:41:46.285Z,3.13
2023-05-24T18:44:17.754Z,3.10
2023-05-24T18:46:47.409Z,3.70
2023-05-24T18:49:19.028Z,3.43
2023-05-24T18:51:50.325Z,2.60
2023-05-24T18:54:19.717Z,3.30
2023-05-24T18:56:51.219Z,3.53
2023-05-24T18:59:18.175Z,2.83
2023-05-24T19:01:53.228Z,3.40
2023-05-24T19:04:24.947Z,3.90
2023-05-24T19:06:54.266Z,3.40
2023-05-24T19:09:26.869Z,3.10
2023-05-24T19:11:59.308Z,3.70
2023-05-24T19:14:26.363Z,3.63
2023-05-24T19:16:55.745Z,4.10
2023-05-24T19:19:22.670Z,3.53
2023-05-24T19:21:53.796Z,3.57
2023-05-24T19:24:24.465Z,3.70
2023-05-24T19:26:56.194Z,3.20
2023-05-24T19:29:25.521Z,3.63
2023-05-24T19:31:54.718Z,3.63
2023-05-24T19:34:28.739Z,4.57
2023-05-24T19:36:56.212Z,4.00
2023-05-24T19:39:27.618Z,3.97
2023-05-24T19:41:59.229Z,4.27
2023-05-24T19:44:31.460Z,4.20
2023-05-24T19:47:00.584Z,3.67
2023-05-24T19:49:36.920Z,3.90
2023-05-24T19:52:09.910Z,4.47
2023-05-24T19:54:39.657Z,3.30
2023-05-24T19:57:09.527Z,3.40
2023-05-24T19:59:36.340Z,4.17
2023-05-24T20:02:07.944Z,3.60
2023-05-24T20:04:34.820Z,3.10
2023-05-24T20:07:02.041Z,3.43
2023-05-24T20:09:33.566Z,3.40
2023-05-24T20:12:09.791Z,4.40
2023-05-24T20:14:42.006Z,3.77
2023-05-24T20:17:17.757Z,2.87
2023-05-24T20:19:44.679Z,3.17
2023-05-24T20:22:17.069Z,3.70
2023-05-24T20:24:46.462Z,3.60
2023-05-24T20:27:18.086Z,3.10
2023-05-24T20:29:45.416Z,3.20
2023-05-24T20:32:12.321Z,3.50
2023-05-24T20:34:41.501Z,3.37
2023-05-24T20:37:08.432Z,2.73
2023-05-24T20:39:37.557Z,4.57
2023-05-24T20:42:09.440Z,3.17
2023-05-24T20:44:38.748Z,3.63
2023-05-24T20:47:05.811Z,4.10
2023-05-24T20:49:35.040Z,4.33
2023-05-24T20:52:04.748Z,3.80
2023-05-24T20:54:31.558Z,4.10
2023-05-24T20:56:59.836Z,4.37
2023-05-24T20:59:26.872Z,3.90
2023-05-24T21:01:55.997Z,4.30
2023-05-24T21:04:25.162Z,4.07
2023-05-24T21:06:52.090Z,3.50
2023-05-24T21:09:26.041Z,3.47
2023-05-24T21:11:52.950Z,3.83
2023-05-24T21:14:24.268Z,2.80
2023-05-24T21:16:55.509Z,3.40
2023-05-24T21:19:24.629Z,3.90
2023-05-24T21:21:54.044Z,3.90
2023-05-24T21:24:20.973Z,3.33
2023-05-24T21:26:47.817Z,3.20
2023-05-24T21:29:14.689Z,4.07
2023-05-24T21:31:41.720Z,3.40
2023-05-24T21:34:08.675Z,3.17
2023-05-24T21:36:40.254Z,3.00
2023-05-24T21:39:09.916Z,3.93
2023-05-24T21:41:39.784Z,3.57
2023-05-24T21:44:08.302Z,3.53
2023-05-24T21:46:35.337Z,2.90
2023-05-24T21:49:02.405Z,3.60
2023-05-24T21:51:29.288Z,4.00
2023-05-24T21:53:56.416Z,3.20
2023-05-24T21:56:27.270Z,3.67
2023-05-24T21:58:56.398Z,3.50
2023-05-24T22:01:23.327Z,2.80
2023-05-24T22:03:50.281Z,2.83
2023-05-24T22:06:17.261Z,3.73
2023-05-24T22:08:46.731Z,3.90
2023-05-24T22:11:18.516Z,2.87
2023-05-24T22:13:45.434Z,3.10
2023-05-24T22:16:16.873Z,3.03
2023-05-24T22:18:46.043Z,3.80
2023-05-24T22:21:14.558Z,3.57
2023-05-24T22:23:44.183Z,3.17
2023-05-24T22:26:18.348Z,2.93
2023-05-24T22:28:56.279Z,2.70
2023-05-24T22:31:24.130Z,3.00
2023-05-24T22:33:53.498Z,3.23
2023-05-24T22:36:25.519Z,3.17
2023-05-24T22:38:52.361Z,3.00
2023-05-24T22:41:22.730Z,3.00
2023-05-24T22:43:52.228Z,3.00
2023-05-24T22:46:19.138Z,3.23
2023-05-24T22:48:50.059Z,3.10
2023-05-24T22:51:22.405Z,3.17
2023-05-24T22:53:52.966Z,3.23
2023-05-24T22:56:19.857Z,3.30
2023-05-24T22:58:46.761Z,3.60
2023-05-24T23:01:16.643Z,3.50
2023-05-24T23:03:46.358Z,2.80
2023-05-24T23:06:16.311Z,3.60
2023-05-24T23:08:43.524Z,3.20
2023-05-24T23:11:10.710Z,2.73
2023-05-24T23:13:42.578Z,3.40
2023-05-24T23:16:18.222Z,3.10
2023-05-24T23:18:45.957Z,3.30
2023-05-24T23:21:18.663Z,2.87
2023-05-24T23:23:50.511Z,2.90
2023-05-24T23:26:17.291Z,3.63
2023-05-24T23:28:44.728Z,4.23
2023-05-24T23:31:13.938Z,3.60
2023-05-24T23:33:43.306Z,2.70
2023-05-24T23:36:12.444Z,3.10
2023-05-24T23:38:47.123Z,3.10
2023-05-24T23:41:16.624Z,4.00
2023-05-24T23:43:45.903Z,3.90
2023-05-24T23:46:20.080Z,3.23
2023-05-24T23:48:46.997Z,3.43
2023-05-24T23:51:16.306Z,3.03
2023-05-24T23:53:45.813Z,2.90
2023-05-24T23:56:14.981Z,3.20
2023-05-24T23:58:42.092Z,3.50
